Time;durP1;ratioP1;P1;durP2;ratioP2;P2;SDS_P1;SDS_P2;PMS_P1;PMS_P2;Temp;Humidity;BMP_temperature;BMP_pressure;BME280_temperature;BME280_humidity;BME280_pressure;Samples;Min_cycle;Max_cycle;Signal;HPM_P1;HPM_P2
2021/10/04 00:01:36;;;;;;;91.72;9.28;;;;;;;13.49;69.63;101938.67;1725463;82;21075;-75
2021/10/04 00:04:04;;;;;;;100.62;11.12;;;;;;;13.46;69.78;101930.20;1720422;82;21059;-73
2021/10/04 00:06:30;;;;;;;67.47;8.08;;;;;;;13.41;70.13;101936.16;1713443;81;21454;-74
2021/10/04 00:08:58;;;;;;;103.67;9.03;;;;;;;13.37;70.55;101930.89;1681683;83;21556;-74
2021/10/04 00:11:25;;;;;;;65.30;7.60;;;;;;;13.39;70.61;101932.63;1680572;84;21127;-75
2021/10/04 00:13:52;;;;;;;92.15;8.15;;;;;;;13.37;70.53;101933.11;1697018;83;21139;-76
2021/10/04 00:16:19;;;;;;;97.22;8.43;;;;;;;13.33;70.51;101930.98;1681161;83;21072;-76
2021/10/04 00:18:47;;;;;;;42.35;7.78;;;;;;;13.34;70.79;101931.84;1676713;84;21129;-74
2021/10/04 00:21:14;;;;;;;39.55;6.85;;;;;;;13.31;70.91;101931.48;1723274;81;21836;-72
2021/10/04 00:23:42;;;;;;;95.17;7.83;;;;;;;13.30;71.37;101931.52;1676673;84;21626;-74
2021/10/04 00:26:09;;;;;;;100.00;9.85;;;;;;;13.31;71.54;101927.90;1693877;82;21553;-73
2021/10/04 00:28:37;;;;;;;57.00;6.95;;;;;;;13.32;71.57;101934.60;1686365;84;21085;-78
2021/10/04 00:31:04;;;;;;;56.18;6.75;;;;;;;13.33;71.73;101927.39;1701376;83;21021;-74
2021/10/04 00:33:31;;;;;;;163.70;12.50;;;;;;;13.35;71.67;101921.97;1690677;83;21140;-73
2021/10/04 00:35:58;;;;;;;113.57;11.22;;;;;;;13.30;72.00;101917.61;1696236;83;21073;-76
2021/10/04 00:38:25;;;;;;;134.75;11.60;;;;;;;13.30;72.21;101919.40;1697601;84;21532;-76
2021/10/04 00:40:53;;;;;;;106.40;10.38;;;;;;;13.30;72.25;101916.70;1688580;83;21238;-74
2021/10/04 00:43:21;;;;;;;92.10;9.95;;;;;;;13.25;72.53;101915.95;1701941;83;21677;-75
2021/10/04 00:45:49;;;;;;;105.75;10.75;;;;;;;13.24;72.95;101918.23;1685221;83;21912;-74
2021/10/04 00:48:16;;;;;;;67.58;8.90;;;;;;;13.22;72.99;101916.05;1699143;83;21026;-74
2021/10/04 00:50:44;;;;;;;76.05;8.05;;;;;;;13.17;73.33;101917.06;1691474;83;21294;-75
2021/10/04 00:53:11;;;;;;;104.65;10.58;;;;;;;13.14;73.45;101921.16;1705270;82;21111;-74
2021/10/04 00:55:39;;;;;;;50.55;7.85;;;;;;;13.04;73.41;101916.52;1669154;84;21117;-72
2021/10/04 00:58:07;;;;;;;65.87;7.85;;;;;;;12.98;73.74;101915.78;1697602;82;21816;-76
2021/10/04 01:00:34;;;;;;;46.60;7.60;;;;;;;12.95;73.69;101915.88;1672733;84;21427;-73
2021/10/04 01:03:01;;;;;;;47.17;8.18;;;;;;;12.88;73.82;101923.22;1705937;82;21068;-73
2021/10/04 01:05:29;;;;;;;57.85;8.08;;;;;;;12.84;74.05;101923.75;1684120;83;21052;-75
2021/10/04 01:07:56;;;;;;;78.72;8.88;;;;;;;12.78;74.00;101918.98;1698576;82;21048;-75
2021/10/04 01:10:23;;;;;;;57.93;7.97;;;;;;;12.69;74.45;101920.99;1690927;83;21138;-75
2021/10/04 01:12:51;;;;;;;62.03;8.70;;;;;;;12.66;75.15;101922.86;1688299;83;21163;-73
2021/10/04 01:15:18;;;;;;;93.25;11.18;;;;;;;12.62;75.34;101915.35;1682336;84;21561;-73
2021/10/04 01:17:47;;;;;;;97.53;11.78;;;;;;;12.56;75.78;101916.38;1719657;82;21398;-73
2021/10/04 01:20:24;;;;;;;76.37;9.53;;;;;;;12.58;75.93;101913.63;1715641;81;21131;-75
2021/10/04 01:22:51;;;;;;;56.55;7.92;;;;;;;12.56;75.89;101913.69;1714315;82;21134;-74
2021/10/04 01:25:19;;;;;;;41.95;7.70;;;;;;;12.56;76.13;101911.00;1692949;84;21614;-74
2021/10/04 01:27:47;;;;;;;68.80;9.45;;;;;;;12.56;76.29;101913.69;1708334;83;21096;-73
2021/10/04 01:30:14;;;;;;;55.28;7.75;;;;;;;12.54;76.29;101919.58;1707517;82;21061;-76
2021/10/04 01:32:43;;;;;;;91.95;9.83;;;;;;;12.50;76.53;101920.58;1704683;83;21442;-73
2021/10/04 01:35:10;;;;;;;86.95;9.75;;;;;;;12.48;76.79;101918.36;1713901;83;21154;-75
2021/10/04 01:37:38;;;;;;;37.88;7.53;;;;;;;12.43;77.11;101919.84;1673740;84;21020;-74
2021/10/04 01:40:06;;;;;;;51.18;7.45;;;;;;;12.41;77.41;101916.74;1657371;85;21112;-72
2021/10/04 01:42:33;;;;;;;84.32;8.83;;;;;;;12.38;77.60;101916.83;1681049;84;20997;-72
2021/10/04 01:45:00;;;;;;;72.42;9.58;;;;;;;12.36;77.84;101915.98;1658140;86;21299;-74
2021/10/04 01:47:28;;;;;;;64.32;8.93;;;;;;;12.38;78.32;101912.79;1680395;83;21545;-73
2021/10/04 01:49:55;;;;;;;106.87;11.30;;;;;;;12.36;78.52;101917.33;1682030;83;21075;-74
2021/10/04 01:52:22;;;;;;;83.87;9.48;;;;;;;12.33;78.77;101914.23;1682895;83;21045;-74
2021/10/04 01:54:49;;;;;;;74.32;9.73;;;;;;;12.31;79.08;101914.29;1675955;83;21096;-75
2021/10/04 01:57:16;;;;;;;74.67;9.53;;;;;;;12.28;79.68;101907.64;1685096;85;21072;-75
2021/10/04 01:59:43;;;;;;;84.77;9.50;;;;;;;12.26;80.21;101909.45;1695227;83;21014;-75
2021/10/04 02:02:10;;;;;;;68.20;10.40;;;;;;;12.25;80.45;101917.09;1689711;84;20949;-72
2021/10/04 02:04:38;;;;;;;96.00;10.38;;;;;;;12.24;80.86;101916.67;1665316;84;21111;-74
2021/10/04 02:07:05;;;;;;;61.18;9.60;;;;;;;12.26;81.25;101918.86;1668374;85;21124;-72
2021/10/04 02:09:32;;;;;;;73.15;8.80;;;;;;;12.28;81.33;101918.40;1682394;85;21411;-73
2021/10/04 02:11:59;;;;;;;81.08;9.35;;;;;;;12.28;81.47;101913.47;1654364;85;21167;-74
2021/10/04 02:14:27;;;;;;;89.60;9.60;;;;;;;12.28;81.69;101918.40;1663418;86;21072;-73
2021/10/04 02:16:54;;;;;;;61.05;8.13;;;;;;;12.27;81.48;101915.73;1658454;85;21132;-72
2021/10/04 02:19:21;;;;;;;75.20;8.43;;;;;;;12.26;81.67;101924.25;1687036;83;21089;-72
2021/10/04 02:21:48;;;;;;;30.35;7.37;;;;;;;12.28;81.79;101920.19;1685060;84;21008;-73
2021/10/04 02:24:15;;;;;;;30.23;6.58;;;;;;;12.26;81.83;101924.25;1669463;85;21533;-72
2021/10/04 02:26:42;;;;;;;42.38;7.03;;;;;;;12.28;81.84;101918.40;1663983;83;21041;-73
2021/10/04 02:29:09;;;;;;;50.05;7.42;;;;;;;12.30;81.71;101924.63;1678609;83;21100;-73
2021/10/04 02:31:36;;;;;;;51.55;8.45;;;;;;;12.26;81.56;101922.90;1660412;84;21046;-73
2021/10/04 02:34:03;;;;;;;52.25;8.58;;;;;;;12.21;81.63;101923.48;1664044;86;21059;-73
2021/10/04 02:36:33;;;;;;;51.40;7.58;;;;;;;12.18;81.44;101926.23;1685722;84;39874;-73
2021/10/04 02:39:00;;;;;;;61.85;8.65;;;;;;;12.12;81.55;101926.39;1666885;84;21474;-72
2021/10/04 02:41:27;;;;;;;54.88;8.88;;;;;;;12.10;81.66;101930.92;1685607;84;21057;-73
2021/10/04 02:43:54;;;;;;;43.28;8.00;;;;;;;12.08;81.45;101936.79;1665763;85;21073;-71
2021/10/04 02:46:21;;;;;;;41.42;7.47;;;;;;;12.01;81.48;101940.94;1679364;83;21030;-72
2021/10/04 02:48:48;;;;;;;51.92;8.35;;;;;;;11.99;81.43;101941.87;1670124;83;21147;-73
2021/10/04 02:51:15;;;;;;;88.40;9.03;;;;;;;11.96;81.35;101945.50;1671283;85;21068;-72
2021/10/04 02:53:42;;;;;;;63.02;8.35;;;;;;;11.93;81.51;101941.54;1662184;85;21045;-73
2021/10/04 02:56:09;;;;;;;76.87;8.48;;;;;;;11.92;81.71;101939.77;1692731;83;21099;-74
2021/10/04 02:58:36;;;;;;;26.15;6.03;;;;;;;11.90;81.81;101944.30;1717525;82;21023;-72
2021/10/04 03:01:03;;;;;;;23.98;6.78;;;;;;;11.91;82.21;101944.72;1658561;84;21852;-74
2021/10/04 03:03:31;;;;;;;16.62;6.12;;;;;;;11.93;82.33;101936.16;1681392;84;20908;-74
2021/10/04 03:05:58;;;;;;;23.85;6.53;;;;;;;11.90;82.63;101940.27;1689312;84;21045;-72
2021/10/04 03:08:25;;;;;;;71.28;9.15;;;;;;;11.89;82.80;101938.50;1673586;84;21052;-75
2021/10/04 03:10:52;;;;;;;54.95;7.90;;;;;;;11.88;82.74;101954.20;1684892;83;21112;-73
2021/10/04 03:13:19;;;;;;;37.50;8.05;;;;;;;11.85;82.58;101940.83;1691702;83;21145;-71
2021/10/04 03:15:46;;;;;;;25.70;7.50;;;;;;;11.82;82.76;101952.52;1717092;83;21009;-73
2021/10/04 03:18:14;;;;;;;20.52;6.50;;;;;;;11.77;82.65;101955.77;1676982;83;21538;-69
2021/10/04 03:20:41;;;;;;;29.63;6.37;;;;;;;11.71;82.78;101951.39;1673047;83;21652;-71
2021/10/04 03:23:08;;;;;;;26.50;6.65;;;;;;;11.66;82.86;101946.58;1672261;84;21620;-72
2021/10/04 03:25:36;;;;;;;56.88;8.33;;;;;;;11.61;82.97;101951.17;1662495;85;22116;-73
2021/10/04 03:28:04;;;;;;;40.23;7.55;;;;;;;11.60;83.09;101957.43;1669453;85;21691;-75
2021/10/04 03:30:31;;;;;;;36.10;7.03;;;;;;;11.58;82.80;101955.23;1682583;84;21515;-72
2021/10/04 03:32:58;;;;;;;47.20;6.67;;;;;;;11.55;82.84;101955.30;1671745;83;21447;-72
2021/10/04 03:35:25;;;;;;;51.23;7.83;;;;;;;11.52;82.67;101957.61;1665623;85;20950;-72
2021/10/04 03:37:54;;;;;;;51.55;8.00;;;;;;;11.48;82.62;101950.98;1667929;85;20954;-72
2021/10/04 03:40:22;;;;;;;48.58;6.80;;;;;;;11.43;82.79;101951.95;1677198;85;21132;-73
2021/10/04 03:42:49;;;;;;;48.87;8.28;;;;;;;11.42;82.79;101950.19;1667995;85;21406;-72
2021/10/04 03:45:16;;;;;;;46.77;7.65;;;;;;;11.40;82.63;101949.78;1661576;85;21503;-73
2021/10/04 03:47:43;;;;;;;37.70;7.65;;;;;;;11.40;82.67;101953.36;1674221;85;21064;-72
2021/10/04 03:50:11;;;;;;;39.33;9.65;;;;;;;11.42;82.05;101953.31;1672564;84;21854;-71
2021/10/04 03:52:39;;;;;;;50.08;10.00;;;;;;;11.31;81.43;101954.86;1678599;83;21021;-71
2021/10/04 03:55:08;;;;;;;46.18;9.55;;;;;;;11.20;81.37;101951.51;1662697;84;21528;-72
2021/10/04 03:57:37;;;;;;;52.45;9.05;;;;;;;11.12;81.36;101956.53;1672718;84;21017;-73
2021/10/04 04:00:11;;;;;;;34.40;8.25;;;;;;;11.02;81.48;101953.61;1681279;85;21018;-74
2021/10/04 04:02:38;;;;;;;47.45;9.18;;;;;;;10.97;81.66;101960.86;1668671;85;21090;-72
2021/10/04 04:05:06;;;;;;;45.55;9.70;;;;;;;10.92;82.07;101964.05;1669717;85;21399;-72
2021/10/04 04:07:33;;;;;;;60.95;9.73;;;;;;;10.88;81.92;101968.13;1672260;84;21014;-73
2021/10/04 04:10:00;;;;;;;36.63;8.20;;;;;;;10.84;81.85;101962.39;1662823;84;21065;-72
2021/10/04 04:12:27;;;;;;;65.40;8.20;;;;;;;10.81;82.02;101972.28;1665264;83;20958;-73
2021/10/04 04:14:54;;;;;;;30.08;7.05;;;;;;;10.79;82.05;101966.95;1669262;85;21161;-72
2021/10/04 04:17:21;;;;;;;30.32;7.08;;;;;;;10.80;82.15;101971.41;1686040;83;21019;-73
2021/10/04 04:19:48;;;;;;;37.70;7.60;;;;;;;10.85;82.15;101978.05;1687400;82;21065;-72
2021/10/04 04:22:15;;;;;;;27.22;7.55;;;;;;;10.89;82.06;101973.92;1670908;83;21101;-73
2021/10/04 04:24:43;;;;;;;25.52;6.83;;;;;;;10.93;81.78;101983.27;1676606;85;21065;-74
2021/10/04 04:27:10;;;;;;;15.43;6.70;;;;;;;10.99;81.59;101983.19;1668764;84;21138;-72
2021/10/04 04:29:37;;;;;;;30.52;7.67;;;;;;;11.02;81.28;101985.81;1679468;83;21019;-72
2021/10/04 04:32:09;;;;;;;22.73;7.80;;;;;;;11.12;81.04;101989.22;1667292;82;21065;-73
2021/10/04 04:34:36;;;;;;;31.02;7.60;;;;;;;11.22;80.47;101986.79;1672828;84;20990;-73
2021/10/04 04:37:05;;;;;;;26.02;8.60;;;;;;;11.31;80.03;101988.42;1672126;82;21498;-73
2021/10/04 04:39:33;;;;;;;35.45;7.97;;;;;;;11.38;79.72;101986.05;1673871;84;21119;-72
2021/10/04 04:42:02;;;;;;;26.00;8.70;;;;;;;11.44;79.32;101988.64;1679337;83;21108;-72
2021/10/04 04:44:29;;;;;;;18.12;7.62;;;;;;;11.50;79.10;101986.74;1728885;82;21078;-71
2021/10/04 04:46:56;;;;;;;17.15;7.45;;;;;;;11.58;78.42;101993.74;1687745;83;21108;-72
2021/10/04 04:49:26;;;;;;;34.92;8.13;;;;;;;11.64;77.55;101999.46;1662595;85;21062;-71
2021/10/04 04:51:54;;;;;;;22.10;8.58;;;;;;;11.68;76.83;101998.92;1677964;84;21530;-73
2021/10/04 04:54:21;;;;;;;29.32;8.68;;;;;;;11.70;76.24;102001.12;1661501;86;21033;-71
2021/10/04 04:56:48;;;;;;;32.13;8.25;;;;;;;11.69;75.70;102005.63;1686220;83;21379;-71
2021/10/04 04:59:15;;;;;;;26.05;9.68;;;;;;;11.70;75.35;102011.42;1670594;83;21502;-73
2021/10/04 05:01:43;;;;;;;24.60;8.03;;;;;;;11.74;74.93;102007.75;1679927;85;21539;-73
2021/10/04 05:04:11;;;;;;;19.85;7.90;;;;;;;11.79;74.76;102014.39;1670008;84;21137;-72
2021/10/04 05:06:38;;;;;;;22.73;8.53;;;;;;;11.87;74.22;102012.89;1717358;82;21011;-72
2021/10/04 05:09:06;;;;;;;20.95;8.08;;;;;;;11.88;73.88;102015.53;1727000;82;21461;-72
2021/10/04 05:11:33;;;;;;;25.80;8.13;;;;;;;11.92;73.70;102015.02;1676163;84;21592;-73
2021/10/04 05:14:00;;;;;;;29.10;8.98;;;;;;;11.96;73.62;102014.04;1718587;82;21127;-71
2021/10/04 05:16:27;;;;;;;23.90;9.05;;;;;;;12.02;73.41;102013.06;1727466;81;21119;-74
2021/10/04 05:18:54;;;;;;;23.38;9.20;;;;;;;12.12;73.29;102013.77;1680846;81;21063;-73
2021/10/04 05:21:21;;;;;;;45.00;10.25;;;;;;;12.22;72.95;102008.59;1662598;85;21111;-71
2021/10/04 05:23:49;;;;;;;29.80;9.43;;;;;;;12.34;72.64;102010.61;1714606;83;21037;-73
2021/10/04 05:26:16;;;;;;;21.97;9.43;;;;;;;12.45;72.13;102009.45;1692361;83;21067;-72
2021/10/04 05:28:43;;;;;;;41.18;9.78;;;;;;;12.55;71.94;102018.19;1682257;83;21136;-73
2021/10/04 05:31:10;;;;;;;67.90;10.90;;;;;;;12.77;71.93;102015.00;1714378;82;21045;-73
2021/10/04 05:33:37;;;;;;;65.47;11.30;;;;;;;13.22;71.12;102024.64;1719757;82;20963;-74
2021/10/04 05:36:05;;;;;;;55.52;9.55;;;;;;;13.74;69.88;102033.17;1719316;83;21065;-73
2021/10/04 05:38:32;;;;;;;89.70;12.53;;;;;;;14.00;68.20;102034.72;1718366;81;21016;-74
2021/10/04 05:40:59;;;;;;;67.08;11.73;;;;;;;14.05;67.64;102034.11;1717118;82;21361;-71
2021/10/04 05:43:26;;;;;;;87.95;11.78;;;;;;;14.09;67.54;102033.09;1714220;82;21086;-73
2021/10/04 05:45:54;;;;;;;63.45;10.43;;;;;;;14.14;67.23;102032.48;1720738;82;21045;-73
2021/10/04 05:48:21;;;;;;;54.42;10.30;;;;;;;14.19;67.17;102035.05;1724062;82;21451;-75
2021/10/04 05:50:49;;;;;;;51.95;10.15;;;;;;;14.25;66.87;102037.55;1718782;81;21099;-73
2021/10/04 05:53:18;;;;;;;64.45;11.15;;;;;;;14.28;66.60;102033.44;1714757;83;21477;-72
2021/10/04 05:55:46;;;;;;;30.85;9.88;;;;;;;14.34;66.74;102031.00;1716100;81;21013;-75
2021/10/04 05:58:13;;;;;;;54.90;11.00;;;;;;;14.52;66.48;102032.72;1713705;81;21510;-74
2021/10/04 06:00:40;;;;;;;30.40;8.45;;;;;;;14.58;65.78;102034.77;1712012;82;21009;-73
2021/10/04 06:03:07;;;;;;;42.58;9.35;;;;;;;14.59;65.87;102029.78;1690078;82;21087;-75
2021/10/04 06:05:35;;;;;;;41.80;9.28;;;;;;;14.68;65.71;102038.52;1679509;82;21127;-75
2021/10/04 06:08:03;;;;;;;48.58;10.25;;;;;;;14.75;65.63;102041.48;1716280;81;21151;-75
2021/10/04 06:10:30;;;;;;;14.33;7.28;;;;;;;14.80;65.95;102039.97;1721245;81;21067;-74
2021/10/04 06:12:59;;;;;;;14.30;6.85;;;;;;;14.89;64.34;102051.36;1680308;82;21047;-75
2021/10/04 06:15:27;;;;;;;20.08;6.90;;;;;;;14.85;63.19;102036.19;1697574;83;21552;-76
2021/10/04 06:17:55;;;;;;;17.87;6.80;;;;;;;14.79;63.40;102037.75;1683247;82;21128;-77
2021/10/04 06:20:22;;;;;;;9.78;6.28;;;;;;;14.81;63.65;102045.78;1681587;82;21100;-73
2021/10/04 06:22:50;;;;;;;16.93;7.03;;;;;;;14.82;63.34;102039.00;1680621;82;21100;-75
2021/10/04 06:25:17;;;;;;;17.67;6.67;;;;;;;14.87;63.71;102037.02;1681748;84;21146;-75
2021/10/04 06:27:44;;;;;;;23.05;7.45;;;;;;;14.98;63.28;102041.20;1682886;82;21101;-74
2021/10/04 06:30:14;;;;;;;15.10;7.40;;;;;;;14.97;63.27;102044.84;1677847;82;21495;-75
2021/10/04 06:32:41;;;;;;;21.80;7.35;;;;;;;15.00;62.95;102039.33;1682109;82;21502;-76
2021/10/04 06:35:09;;;;;;;16.80;7.03;;;;;;;15.02;63.00;102042.86;1662978;84;22201;-75
2021/10/04 06:37:36;;;;;;;14.30;7.78;;;;;;;14.98;63.05;102043.91;1714279;81;21163;-75
2021/10/04 06:40:05;;;;;;;13.85;7.40;;;;;;;14.96;63.13;102047.99;1709632;81;22223;-77
2021/10/04 06:42:33;;;;;;;16.23;7.33;;;;;;;15.02;62.92;102050.97;1684774;82;21446;-76
2021/10/04 06:45:00;;;;;;;14.87;8.00;;;;;;;15.01;62.98;102047.85;1677231;82;21109;-77
2021/10/04 06:47:28;;;;;;;20.40;8.48;;;;;;;15.05;63.37;102053.56;1679301;84;21655;-76
2021/10/04 06:49:55;;;;;;;18.30;8.48;;;;;;;15.14;63.03;102061.38;1677426;83;21131;-74
2021/10/04 06:52:22;;;;;;;14.30;7.45;;;;;;;15.12;63.07;102055.12;1673001;82;21068;-75
2021/10/04 06:54:49;;;;;;;19.42;8.98;;;;;;;15.13;63.47;102056.87;1679568;83;21963;-75
2021/10/04 06:57:16;;;;;;;19.65;8.53;;;;;;;15.20;63.58;102058.91;1683238;83;21128;-75
2021/10/04 06:59:43;;;;;;;17.35;7.90;;;;;;;15.25;62.66;102074.98;1684276;83;21160;-76
2021/10/04 07:02:10;;;;;;;22.65;8.10;;;;;;;15.25;62.08;102068.23;1676985;83;21139;-75
2021/10/04 07:04:37;;;;;;;14.43;7.75;;;;;;;15.17;62.42;102068.02;1676820;84;21089;-76
2021/10/04 07:07:04;;;;;;;20.72;8.43;;;;;;;15.17;61.77;102066.67;1680331;84;21100;-75
2021/10/04 07:09:33;;;;;;;19.75;8.20;;;;;;;15.17;61.73;102074.78;1726399;81;21662;-74
2021/10/04 07:12:00;;;;;;;15.30;7.70;;;;;;;15.15;61.97;102071.25;1726639;81;21087;-76
2021/10/04 07:14:27;;;;;;;14.58;7.87;;;;;;;15.14;62.37;102072.64;1725800;81;21042;-76
2021/10/04 07:16:55;;;;;;;20.70;8.50;;;;;;;15.20;61.79;102070.20;1682165;82;21077;-75
2021/10/04 07:19:23;;;;;;;19.95;8.73;;;;;;;15.14;61.68;102065.44;1703019;81;21140;-77
2021/10/04 07:21:54;;;;;;;25.48;8.38;;;;;;;15.09;62.42;102068.73;1700422;82;21075;-75
2021/10/04 07:24:22;;;;;;;19.07;8.48;;;;;;;15.10;62.54;102070.49;1690825;83;21125;-75
2021/10/04 07:26:49;;;;;;;22.27;8.43;;;;;;;15.16;62.33;102071.66;1671897;83;21114;-76
2021/10/04 07:29:17;;;;;;;16.57;8.23;;;;;;;15.24;61.61;102071.86;1660771;84;21072;-75
2021/10/04 07:31:44;;;;;;;18.52;8.13;;;;;;;15.23;61.59;102067.39;1671528;83;21148;-76
2021/10/04 07:34:12;;;;;;;18.02;8.20;;;;;;;15.18;62.41;102076.55;1673755;83;22559;-76
2021/10/04 07:36:39;;;;;;;14.15;7.75;;;;;;;15.21;62.36;102063.87;1693546;83;21042;-75
2021/10/04 07:39:07;;;;;;;18.20;8.40;;;;;;;15.20;62.44;102071.07;1697710;83;21132;-74
2021/10/04 07:41:37;;;;;;;14.10;7.72;;;;;;;15.23;62.77;102067.39;1693418;83;21093;-74
2021/10/04 07:44:05;;;;;;;17.52;8.00;;;;;;;15.23;62.43;102070.09;1692866;83;21095;-76
2021/10/04 07:46:32;;;;;;;16.48;7.75;;;;;;;15.19;62.36;102074.70;1697370;83;21106;-74
2021/10/04 07:48:59;;;;;;;15.93;8.83;;;;;;;15.14;62.30;102072.19;1692107;83;21096;-77
2021/10/04 07:51:26;;;;;;;15.63;7.72;;;;;;;15.12;62.69;102070.45;1675119;83;21065;-75
2021/10/04 07:53:53;;;;;;;21.60;8.95;;;;;;;15.12;62.46;102073.16;1695558;83;21080;-73
2021/10/04 07:56:20;;;;;;;16.57;7.42;;;;;;;15.13;63.04;102083.89;1694678;83;21149;-75
2021/10/04 07:58:47;;;;;;;17.87;7.83;;;;;;;15.16;63.08;102081.12;1691646;83;21655;-72
2021/10/04 08:01:14;;;;;;;14.00;7.47;;;;;;;15.15;62.77;102076.66;1690537;83;21148;-75
2021/10/04 08:03:43;;;;;;;14.47;6.67;;;;;;;15.17;62.98;102075.23;1692799;83;21029;-74
2021/10/04 08:06:12;;;;;;;19.60;8.00;;;;;;;15.17;62.22;102078.83;1698459;83;21069;-75
2021/10/04 08:08:39;;;;;;;17.82;7.45;;;;;;;15.13;61.74;102077.14;1675924;83;21154;-75
2021/10/04 08:11:06;;;;;;;13.75;7.03;;;;;;;15.15;61.78;102070.35;1697682;83;21052;-75
2021/10/04 08:13:32;;;;;;;13.43;6.70;;;;;;;15.22;61.37;102083.19;1676007;83;21123;-74
2021/10/04 08:16:00;;;;;;;15.35;7.47;;;;;;;15.24;61.23;102076.78;1678615;83;21074;-75
2021/10/04 08:18:27;;;;;;;16.75;7.50;;;;;;;15.31;61.62;102081.06;1700680;81;21075;-76
2021/10/04 08:20:54;;;;;;;17.30;7.00;;;;;;;15.41;61.30;102082.09;1719309;81;21520;-75
2021/10/04 08:23:21;;;;;;;12.35;6.45;;;;;;;15.42;60.09;102078.45;1721784;81;21086;-74
2021/10/04 08:25:48;;;;;;;13.00;7.15;;;;;;;15.42;59.69;102076.65;1723614;81;21493;-76
2021/10/04 08:28:15;;;;;;;11.95;7.00;;;;;;;15.48;59.45;102079.61;1712791;81;21034;-75
2021/10/04 08:30:42;;;;;;;10.45;6.40;;;;;;;15.53;58.94;102077.63;1726263;81;21521;-73
2021/10/04 08:33:09;;;;;;;15.45;6.87;;;;;;;15.58;58.74;102067.98;1721904;81;21772;-77
2021/10/04 08:35:37;;;;;;;15.35;7.10;;;;;;;15.67;58.60;102066.33;1727121;81;21072;-76
2021/10/04 08:38:04;;;;;;;13.05;6.75;;;;;;;15.72;58.15;102065.69;1728435;81;21113;-75
2021/10/04 08:40:31;;;;;;;17.42;6.70;;;;;;;15.73;56.86;102070.16;1721783;81;21054;-73
2021/10/04 08:42:58;;;;;;;12.68;7.53;;;;;;;15.76;57.16;102074.09;1722223;81;21098;-74
2021/10/04 08:45:27;;;;;;;12.78;6.53;;;;;;;15.76;56.72;102075.45;1720970;81;21681;-73
2021/10/04 08:48:02;;;;;;;14.20;7.08;;;;;;;15.73;56.26;102071.50;1721904;81;21090;-75
2021/10/04 08:50:28;;;;;;;13.32;5.90;;;;;;;15.78;55.66;102070.00;1695938;82;21162;-76
2021/10/04 08:52:55;;;;;;;13.93;6.72;;;;;;;15.83;56.02;102056.32;1663550;83;21126;-74
2021/10/04 08:55:22;;;;;;;15.58;6.12;;;;;;;15.87;55.77;102051.20;1693471;82;21162;-73
2021/10/04 08:57:50;;;;;;;9.40;5.72;;;;;;;15.98;55.65;102057.12;1698557;82;21855;-76
2021/10/04 09:00:16;;;;;;;15.00;6.05;;;;;;;16.08;54.28;102051.38;1707807;82;20984;-74
2021/10/04 09:02:45;;;;;;;14.30;6.03;;;;;;;16.10;54.21;102050.86;1695866;82;21113;-74
2021/10/04 09:05:23;;;;;;;10.30;5.42;;;;;;;16.13;53.36;102043.97;1738616;81;21189;-73
2021/10/04 09:07:54;;;;;;;8.63;5.60;;;;;;;16.12;52.92;102048.97;1724857;81;21039;-74
2021/10/04 09:10:27;;;;;;;12.33;6.42;;;;;;;16.11;53.50;102049.91;1694977;82;21153;-73
2021/10/04 09:12:58;;;;;;;13.05;5.90;;;;;;;16.10;53.60;102042.25;1688275;82;21077;-76
2021/10/04 09:15:35;;;;;;;10.18;5.20;;;;;;;16.07;52.89;102046.91;1737630;81;21473;-76
2021/10/04 09:18:17;;;;;;;10.53;5.42;;;;;;;16.03;52.31;102053.80;1693956;83;21061;-75
2021/10/04 09:21:03;;;;;;;12.05;6.15;;;;;;;16.01;52.14;102055.65;1689724;82;21486;-74
2021/10/04 09:23:48;;;;;;;13.78;4.90;;;;;;;15.97;53.37;102043.19;1652472;84;21534;-76
2021/10/04 09:26:33;;;;;;;14.43;5.50;;;;;;;15.98;53.86;102042.23;1648036;85;21076;-74
2021/10/04 09:29:06;;;;;;;7.97;5.25;;;;;;;16.02;52.31;102047.95;1686339;83;21171;-73
2021/10/04 09:31:37;;;;;;;9.40;5.10;;;;;;;16.00;52.70;102051.17;1631476;86;21549;-75
2021/10/04 09:34:12;;;;;;;11.70;5.40;;;;;;;15.97;51.76;102049.94;1688606;83;21458;-74
2021/10/04 09:36:43;;;;;;;12.13;5.62;;;;;;;15.89;52.01;102052.06;1696099;82;21494;-76
2021/10/04 09:39:30;;;;;;;13.53;5.12;;;;;;;15.82;52.49;102049.14;1689027;82;21084;-72
2021/10/04 09:42:14;;;;;;;9.75;4.80;;;;;;;15.80;52.55;102051.00;1690891;82;22220;-71
2021/10/04 09:45:00;;;;;;;12.05;5.47;;;;;;;15.76;53.30;102052.95;1691654;82;21182;-75
2021/10/04 09:47:34;;;;;;;10.38;4.92;;;;;;;15.72;53.16;102048.59;1691119;82;21063;-73
2021/10/04 09:50:08;;;;;;;12.30;5.25;;;;;;;15.72;53.30;102037.30;1688081;82;21652;-74
2021/10/04 09:52:59;;;;;;;11.83;5.72;;;;;;;15.76;53.78;102034.89;1682145;82;22144;-74
2021/10/04 09:55:37;;;;;;;9.98;5.47;;;;;;;15.86;53.18;102049.44;1689259;82;21062;-72
2021/10/04 09:58:15;;;;;;;14.03;5.83;;;;;;;15.84;53.14;102037.80;1684245;83;21246;-73
2021/10/04 10:00:45;;;;;;;;;;;;;;;15.74;53.75;102030.00;1693155;82;21055;-73
2021/10/04 10:03:14;;;;;;;11.00;5.50;;;;;;;15.74;53.99;102036.77;1694071;82;21164;-72
2021/10/04 10:05:43;;;;;;;14.25;6.08;;;;;;;15.75;54.41;102029.06;1691223;84;21081;-75
2021/10/04 10:08:10;;;;;;;17.60;5.75;;;;;;;15.81;54.12;102028.45;1691926;82;20970;-74
2021/10/04 10:10:40;;;;;;;14.18;5.35;;;;;;;15.89;54.46;102031.78;1699159;82;21057;-74
2021/10/04 10:13:07;;;;;;;11.50;5.33;;;;;;;15.98;54.37;102026.02;1655446;84;20955;-74
2021/10/04 10:15:35;;;;;;;8.98;4.92;;;;;;;16.03;53.22;102026.75;1692590;83;21798;-72
2021/10/04 10:18:21;;;;;;;11.80;5.05;;;;;;;16.08;52.93;102021.62;1685068;83;21141;-73
2021/10/04 10:20:59;;;;;;;9.05;5.62;;;;;;;16.09;52.22;102030.16;1710273;81;21131;-73
2021/10/04 10:23:52;;;;;;;7.40;4.15;;;;;;;16.09;52.06;102022.03;1722469;81;21638;-75
2021/10/04 10:26:45;;;;;;;6.17;3.40;;;;;;;16.16;51.66;102020.84;1706624;81;21627;-74
2021/10/04 10:29:23;;;;;;;7.87;4.05;;;;;;;16.23;49.98;102011.55;1719793;83;21169;-73
2021/10/04 10:31:56;;;;;;;9.50;3.90;;;;;;;16.24;47.64;102009.25;1715941;82;21068;-74
2021/10/04 10:34:39;;;;;;;7.12;3.95;;;;;;;16.32;47.04;102004.89;1678113;84;21171;-74
2021/10/04 10:37:27;;;;;;;10.60;3.87;;;;;;;16.41;46.61;102011.77;1681261;82;21067;-74
2021/10/04 10:40:17;;;;;;;12.63;4.20;;;;;;;16.42;45.20;102006.77;1674102;83;21127;-74
2021/10/04 10:43:03;;;;;;;9.48;4.20;;;;;;;16.45;43.41;102002.13;1732799;81;21093;-74
2021/10/04 10:45:47;;;;;;;7.75;4.00;;;;;;;16.45;43.78;102005.29;1727279;82;21036;-73
2021/10/04 10:48:16;;;;;;;7.78;4.28;;;;;;;16.52;44.32;101997.35;1715162;82;21028;-72
2021/10/04 10:50:45;;;;;;;6.28;3.92;;;;;;;16.60;43.87;102004.68;1719772;81;21064;-74
2021/10/04 10:53:27;;;;;;;8.13;3.92;;;;;;;16.65;43.73;101990.06;1722293;81;22124;-72
2021/10/04 10:55:59;;;;;;;5.62;3.87;;;;;;;16.73;43.60;101993.36;1720234;81;21176;-74
2021/10/04 10:58:32;;;;;;;6.92;4.10;;;;;;;16.75;43.74;101986.92;1731236;81;21107;-73
2021/10/04 11:01:18;;;;;;;8.83;4.33;;;;;;;16.74;43.83;101978.87;1724837;81;21083;-74
2021/10/04 11:03:50;;;;;;;10.13;3.77;;;;;;;16.80;43.46;101976.36;1681341;82;21028;-74
2021/10/04 11:06:17;;;;;;;8.08;4.30;;;;;;;16.92;42.72;101980.41;1667591;83;22092;-63
2021/10/04 11:08:52;;;;;;;9.85;4.87;;;;;;;16.88;42.26;101975.59;1709988;81;21622;-65
2021/10/04 11:11:19;;;;;;;7.10;4.65;;;;;;;16.90;42.60;101970.48;1681789;83;21458;-61
2021/10/04 11:14:13;;;;;;;7.83;4.42;;;;;;;16.97;42.34;101982.44;1677432;82;21102;-62
2021/10/04 11:16:45;;;;;;;6.10;4.12;;;;;;;16.94;41.36;101977.16;1731411;81;21095;-62
2021/10/04 11:19:28;;;;;;;5.45;3.95;;;;;;;16.89;41.27;101971.44;1724632;81;21103;-63
2021/10/04 11:21:55;;;;;;;9.80;4.40;;;;;;;16.90;41.37;101969.13;1724620;82;22356;-62
2021/10/04 11:24:24;;;;;;;9.00;4.30;;;;;;;16.91;41.96;101965.97;1727418;81;21149;-63
2021/10/04 11:26:51;;;;;;;5.03;4.10;;;;;;;16.95;41.91;101965.37;1731011;81;21090;-61